createdAt,value
2023-05-06T00:02:08.396Z,5.90
2023-05-06T00:04:35.846Z,4.40
2023-05-06T00:07:03.369Z,3.15
2023-05-06T00:09:30.869Z,3.97
2023-05-06T00:11:58.361Z,2.45
2023-05-06T00:14:25.774Z,4.25
2023-05-06T00:16:53.410Z,2.92
2023-05-06T00:19:20.844Z,4.85
2023-05-06T00:21:48.330Z,3.20
2023-05-06T00:24:15.742Z,3.22
2023-05-06T00:26:43.319Z,4.40
2023-05-06T00:29:11.036Z,3.40
2023-05-06T00:31:38.642Z,3.80
2023-05-06T00:34:06.086Z,4.68
2023-05-06T00:36:34.061Z,3.20
2023-05-06T00:39:01.550Z,3.08
2023-05-06T00:41:32.906Z,4.57
2023-05-06T00:44:00.669Z,3.97
2023-05-06T00:46:28.406Z,4.53
2023-05-06T00:48:56.387Z,4.60
2023-05-06T00:51:24.084Z,4.85
2023-05-06T00:53:51.583Z,3.63
2023-05-06T00:56:20.783Z,5.28
2023-05-06T00:58:48.761Z,6.38
2023-05-06T01:01:17.297Z,6.50
2023-05-06T01:03:44.950Z,3.35
2023-05-06T01:06:18.631Z,3.50
2023-05-06T01:09:01.494Z,3.15
2023-05-06T01:11:35.128Z,5.07
2023-05-06T01:14:10.785Z,3.83
2023-05-06T01:16:40.575Z,3.47
2023-05-06T01:19:10.006Z,4.30
2023-05-06T01:21:38.082Z,2.88
2023-05-06T01:24:05.702Z,7.05
2023-05-06T01:26:33.108Z,2.70
2023-05-06T01:29:02.100Z,4.00
2023-05-06T01:31:37.246Z,2.90
2023-05-06T01:34:28.538Z,2.92
2023-05-06T01:39:27.165Z,3.15
2023-05-06T01:41:57.190Z,5.70
2023-05-06T01:44:25.309Z,4.13
2023-05-06T01:46:54.110Z,2.95
2023-05-06T01:49:22.789Z,5.75
2023-05-06T01:51:50.788Z,3.00
2023-05-06T01:54:18.619Z,2.53
2023-05-06T01:56:46.563Z,7.25
2023-05-06T01:59:15.623Z,6.25
2023-05-06T02:01:43.204Z,5.50
2023-05-06T02:04:10.759Z,3.25
2023-05-06T02:06:38.187Z,4.30
2023-05-06T02:09:06.201Z,4.53
2023-05-06T02:11:38.550Z,2.92
2023-05-06T02:14:07.736Z,3.38
2023-05-06T02:16:36.145Z,4.38
2023-05-06T02:19:03.942Z,2.90
2023-05-06T02:21:32.241Z,6.68
2023-05-06T02:23:59.965Z,3.67
2023-05-06T02:26:27.528Z,3.25
2023-05-06T02:28:54.984Z,3.17
2023-05-06T02:31:22.603Z,4.05
2023-05-06T02:33:50.376Z,5.65
2023-05-06T02:36:17.797Z,3.05
2023-05-06T02:38:45.285Z,3.13
2023-05-06T02:41:12.769Z,3.28
2023-05-06T02:43:40.272Z,4.15
2023-05-06T02:46:08.484Z,3.05
2023-05-06T02:48:36.231Z,3.53
2023-05-06T02:51:04.975Z,4.93
2023-05-06T02:53:32.388Z,7.68
2023-05-06T02:55:59.874Z,4.45
2023-05-06T02:58:27.386Z,5.72
2023-05-06T03:00:54.863Z,3.95
2023-05-06T03:03:22.868Z,4.10
2023-05-06T03:05:50.339Z,3.78
2023-05-06T03:08:18.054Z,3.35
2023-05-06T03:10:46.168Z,4.00
2023-05-06T03:13:14.711Z,4.68
2023-05-06T03:15:42.417Z,4.57
2023-05-06T03:18:09.896Z,3.65
2023-05-06T03:20:37.481Z,4.60
2023-05-06T03:23:05.000Z,4.45
2023-05-06T03:25:32.568Z,6.45
2023-05-06T03:28:00.232Z,3.88
2023-05-06T03:30:30.062Z,3.80
2023-05-06T03:33:02.012Z,3.17
2023-05-06T03:35:32.378Z,5.35
2023-05-06T03:38:01.305Z,4.65
2023-05-06T03:40:36.560Z,5.10
2023-05-06T03:43:04.527Z,3.28
2023-05-06T03:45:32.040Z,3.80
2023-05-06T03:48:01.974Z,4.45
2023-05-06T03:50:32.267Z,3.22
2023-05-06T03:52:59.950Z,3.50
2023-05-06T03:55:29.161Z,3.50
2023-05-06T03:57:57.278Z,2.83
2023-05-06T04:00:24.807Z,3.75
2023-05-06T04:02:54.641Z,3.33
2023-05-06T04:05:28.945Z,3.88
2023-05-06T04:07:56.551Z,3.28
2023-05-06T04:10:26.997Z,3.67
2023-05-06T04:13:00.023Z,4.18
2023-05-06T04:15:34.438Z,4.63
2023-05-06T04:18:03.823Z,5.82
2023-05-06T04:20:31.287Z,3.80
2023-05-06T04:22:59.004Z,5.20
2023-05-06T04:25:27.875Z,4.97
2023-05-06T04:27:55.705Z,7.47
2023-05-06T04:30:24.261Z,6.35
2023-05-06T04:32:52.396Z,8.10
2023-05-06T04:35:20.422Z,10.20
2023-05-06T04:37:48.924Z,7.72
2023-05-06T04:40:23.405Z,9.13
2023-05-06T04:42:52.678Z,11.10
2023-05-06T04:45:25.248Z,8.50
2023-05-06T04:47:54.181Z,6.15
2023-05-06T04:50:21.767Z,6.18
2023-05-06T04:52:49.490Z,6.43
2023-05-06T04:55:19.421Z,7.20
2023-05-06T04:57:51.423Z,7.22
2023-05-06T05:00:19.127Z,4.40
2023-05-06T05:02:47.298Z,7.15
2023-05-06T05:05:17.149Z,4.73
2023-05-06T05:07:47.148Z,5.87
2023-05-06T05:10:15.111Z,6.20
2023-05-06T05:12:42.724Z,5.50
2023-05-06T05:15:10.664Z,5.30
2023-05-06T05:17:38.973Z,7.03
2023-05-06T05:20:07.720Z,7.97
2023-05-06T05:22:35.425Z,10.43
2023-05-06T05:25:03.938Z,12.82
2023-05-06T05:27:32.832Z,10.65
2023-05-06T05:30:01.053Z,10.55
2023-05-06T05:32:31.195Z,12.40
2023-05-06T05:34:58.862Z,11.30
2023-05-06T05:37:26.613Z,12.90
2023-05-06T05:39:54.152Z,11.07
2023-05-06T05:42:22.047Z,9.02
2023-05-06T05:44:50.155Z,9.55
2023-05-06T05:47:17.953Z,8.02
2023-05-06T05:49:46.105Z,8.52
2023-05-06T05:52:14.166Z,11.63
2023-05-06T05:54:41.942Z,10.65
2023-05-06T05:57:10.402Z,12.50
2023-05-06T05:59:38.476Z,9.40
2023-05-06T06:02:07.627Z,11.60
2023-05-06T06:04:35.262Z,10.05
2023-05-06T06:07:04.585Z,10.32
2023-05-06T06:09:36.560Z,8.55
2023-05-06T06:12:05.235Z,13.10
2023-05-06T06:14:34.943Z,10.32
2023-05-06T06:17:02.816Z,10.68
2023-05-06T06:19:30.786Z,10.43
2023-05-06T06:21:58.667Z,12.05
2023-05-06T06:24:26.489Z,10.55
2023-05-06T06:26:54.257Z,11.57
2023-05-06T06:29:21.909Z,13.40
2023-05-06T06:31:49.548Z,10.25
2023-05-06T06:34:17.420Z,8.77
2023-05-06T06:36:45.335Z,10.90
2023-05-06T06:39:13.349Z,13.40
2023-05-06T06:41:41.021Z,12.30
2023-05-06T06:44:08.537Z,10.10
2023-05-06T06:46:36.116Z,10.13
2023-05-06T06:49:03.730Z,13.02
2023-05-06T06:51:31.904Z,12.55
2023-05-06T06:53:59.436Z,10.95
2023-05-06T06:56:27.026Z,12.38
2023-05-06T06:58:54.555Z,9.63
2023-05-06T07:01:22.154Z,9.57
2023-05-06T07:03:49.717Z,7.25
2023-05-06T07:06:17.353Z,11.27
2023-05-06T07:08:44.951Z,9.57
2023-05-06T07:11:14.738Z,7.88
2023-05-06T07:13:42.507Z,7.28
2023-05-06T07:16:10.038Z,7.50
2023-05-06T07:18:37.585Z,7.88
2023-05-06T07:21:05.398Z,10.45
2023-05-06T07:23:32.937Z,6.03
2023-05-06T07:26:00.487Z,4.43
2023-05-06T07:28:28.108Z,5.57
2023-05-06T07:30:55.699Z,5.53
2023-05-06T07:33:23.248Z,5.88
2023-05-06T07:35:50.723Z,4.95
2023-05-06T07:38:18.250Z,5.13
2023-05-06T07:40:45.721Z,5.65
2023-05-06T07:43:13.212Z,6.70
2023-05-06T07:45:40.895Z,4.45
2023-05-06T07:48:08.432Z,5.32
2023-05-06T07:50:36.192Z,3.95
2023-05-06T07:53:04.053Z,5.72
2023-05-06T07:55:32.794Z,4.53
2023-05-06T07:58:03.217Z,4.53
2023-05-06T08:00:30.753Z,4.30
2023-05-06T08:02:58.356Z,6.68
2023-05-06T08:05:25.953Z,5.20
2023-05-06T08:07:54.166Z,4.90
2023-05-06T08:10:25.052Z,5.30
2023-05-06T08:12:52.777Z,5.32
2023-05-06T08:15:20.433Z,4.50
2023-05-06T08:17:48.194Z,7.03
2023-05-06T08:20:15.731Z,5.93
2023-05-06T08:22:43.448Z,4.85
2023-05-06T08:25:11.573Z,6.30
2023-05-06T08:27:39.828Z,7.50
2023-05-06T08:30:08.458Z,4.05
2023-05-06T08:32:36.408Z,7.80
2023-05-06T08:40:37.766Z,6.22
2023-05-06T08:43:20.627Z,5.35
2023-05-06T08:45:49.556Z,4.45
2023-05-06T08:48:34.388Z,4.45
2023-05-06T08:51:03.680Z,7.45
2023-05-06T08:53:31.590Z,5.57
2023-05-06T08:56:04.045Z,7.50
2023-05-06T09:04:15.018Z,4.60
2023-05-06T09:07:02.280Z,5.95
2023-05-06T09:09:43.624Z,5.35
2023-05-06T09:12:19.939Z,5.05
2023-05-06T09:14:58.764Z,7.13
2023-05-06T09:28:36.289Z,3.10
2023-05-06T09:31:07.121Z,3.53
2023-05-06T09:33:36.897Z,5.25
2023-05-06T09:36:15.252Z,5.78
2023-05-06T09:41:25.275Z,2.50
2023-05-06T09:44:05.901Z,4.57
2023-05-06T09:46:46.025Z,3.35
2023-05-06T10:11:40.816Z,4.32
2023-05-06T10:28:33.254Z,4.05
2023-05-06T10:39:15.277Z,3.58
2023-05-06T10:41:43.117Z,10.63
2023-05-06T10:44:10.834Z,4.43
2023-05-06T10:46:57.521Z,6.00
2023-05-06T10:49:25.418Z,3.28
2023-05-06T10:54:49.357Z,4.18
2023-05-06T10:57:17.071Z,4.45
2023-05-06T10:59:47.883Z,4.63
2023-05-06T11:02:18.595Z,4.93
2023-05-06T11:04:51.021Z,3.22
2023-05-06T11:07:24.919Z,4.28
2023-05-06T11:09:59.685Z,4.28
2023-05-06T11:12:55.659Z,3.63
2023-05-06T11:15:27.027Z,4.93
2023-05-06T11:17:55.831Z,5.82
2023-05-06T11:20:23.771Z,3.70
2023-05-06T11:22:51.785Z,3.15
2023-05-06T11:25:38.390Z,5.93
2023-05-06T11:28:12.500Z,3.55
2023-05-06T11:30:41.814Z,4.63
2023-05-06T11:33:10.680Z,3.63
2023-05-06T11:35:42.070Z,5.15
2023-05-06T11:38:10.041Z,3.72
2023-05-06T11:40:38.893Z,3.83
2023-05-06T11:43:24.687Z,3.25
2023-05-06T11:45:54.631Z,3.83
2023-05-06T11:48:43.302Z,3.40
2023-05-06T11:59:41.444Z,8.00
2023-05-06T12:02:11.977Z,3.88
2023-05-06T12:04:49.568Z,3.38
2023-05-06T12:07:44.102Z,1.88
2023-05-06T12:12:53.436Z,2.30
2023-05-06T12:18:03.256Z,5.47
2023-05-06T12:28:47.817Z,1.85
2023-05-06T12:31:22.163Z,1.58
2023-05-06T12:33:50.567Z,3.05
2023-05-06T12:36:19.273Z,3.00
2023-05-06T12:38:52.880Z,3.28
2023-05-06T12:41:21.377Z,1.83
2023-05-06T12:43:49.981Z,1.67
2023-05-06T12:46:17.700Z,1.73
2023-05-06T12:49:01.822Z,2.00
2023-05-06T12:51:30.797Z,2.35
2023-05-06T12:53:58.672Z,1.83
2023-05-06T12:56:26.239Z,1.83
2023-05-06T12:59:01.054Z,2.38
2023-05-06T13:01:28.808Z,3.33
2023-05-06T13:03:58.181Z,2.65
2023-05-06T13:06:25.878Z,1.15
2023-05-06T13:08:53.355Z,2.17
2023-05-06T13:11:25.717Z,1.73
2023-05-06T13:13:55.581Z,3.13
2023-05-06T13:16:23.155Z,2.28
2023-05-06T13:18:50.773Z,1.02
2023-05-06T13:21:18.325Z,2.83
2023-05-06T13:23:47.760Z,1.23
2023-05-06T13:26:15.498Z,2.20
2023-05-06T13:28:43.006Z,2.95
2023-05-06T13:44:39.079Z,2.22
2023-05-06T13:47:07.277Z,1.98
2023-05-06T13:49:35.075Z,2.53
2023-05-06T13:52:02.654Z,1.98
2023-05-06T13:54:30.277Z,1.70
2023-05-06T13:56:58.264Z,2.15
2023-05-06T13:59:25.883Z,2.00
2023-05-06T14:01:55.836Z,4.30
2023-05-06T14:04:23.564Z,2.42
2023-05-06T14:06:51.417Z,1.38
2023-05-06T14:09:18.922Z,1.92
2023-05-06T14:11:46.582Z,2.22
2023-05-06T14:14:15.392Z,1.38
2023-05-06T14:16:42.985Z,1.40
2023-05-06T14:19:10.593Z,2.35
2023-05-06T14:21:38.068Z,2.53
2023-05-06T14:24:07.476Z,2.80
2023-05-06T14:26:35.553Z,2.03
2023-05-06T14:29:03.604Z,2.42
2023-05-06T14:31:31.040Z,2.35
2023-05-06T14:33:58.480Z,2.40
2023-05-06T14:36:25.997Z,1.48
2023-05-06T14:38:53.433Z,1.02
2023-05-06T14:41:20.829Z,2.45
2023-05-06T14:43:48.271Z,1.65
2023-05-06T14:46:17.969Z,1.52
2023-05-06T14:48:46.136Z,1.65
2023-05-06T14:51:13.579Z,3.35
2023-05-06T14:53:41.174Z,3.20
2023-05-06T14:56:10.754Z,1.55
2023-05-06T14:58:39.256Z,4.15
2023-05-06T15:01:06.952Z,3.28
2023-05-06T15:03:34.630Z,1.88
2023-05-06T15:06:03.306Z,2.00
2023-05-06T15:08:30.982Z,3.20
2023-05-06T15:10:58.396Z,1.65
2023-05-06T15:13:25.817Z,2.75
2023-05-06T15:15:53.387Z,1.02
2023-05-06T15:18:21.894Z,1.60
2023-05-06T15:20:49.371Z,2.35
2023-05-06T15:23:17.554Z,1.10
2023-05-06T15:25:45.430Z,2.42
2023-05-06T15:28:13.477Z,1.13
2023-05-06T15:30:41.014Z,1.38
2023-05-06T15:33:09.011Z,3.35
2023-05-06T15:35:36.672Z,1.95
2023-05-06T15:38:04.659Z,2.40
2023-05-06T15:40:32.216Z,1.60
2023-05-06T15:42:59.940Z,1.90
2023-05-06T15:45:27.963Z,1.35
2023-05-06T15:47:57.102Z,2.80
2023-05-06T15:50:32.828Z,1.35
2023-05-06T15:53:01.961Z,1.63
2023-05-06T15:55:35.326Z,3.10
2023-05-06T15:58:08.874Z,2.33
2023-05-06T16:00:36.394Z,3.95
2023-05-06T16:03:04.082Z,2.83
2023-05-06T16:05:31.668Z,2.83
2023-05-06T16:07:59.162Z,2.45
2023-05-06T16:10:26.631Z,3.97
2023-05-06T16:12:54.943Z,2.10
2023-05-06T16:15:22.412Z,6.40
2023-05-06T16:17:49.981Z,5.65
2023-05-06T16:20:17.503Z,3.55
2023-05-06T16:22:50.291Z,4.00
2023-05-06T16:25:19.837Z,3.83
2023-05-06T16:27:47.445Z,2.28
2023-05-06T16:30:15.161Z,11.02
2023-05-06T16:32:42.769Z,3.28
2023-05-06T16:37:38.281Z,2.03
2023-05-06T16:40:06.142Z,3.72
2023-05-06T16:42:33.650Z,3.05
2023-05-06T16:45:01.176Z,2.53
2023-05-06T16:47:28.826Z,3.00
2023-05-06T16:49:56.534Z,2.00
2023-05-06T16:52:25.059Z,1.77
2023-05-06T16:54:52.992Z,2.45
2023-05-06T16:57:20.780Z,1.85
2023-05-06T16:59:49.235Z,1.95
2023-05-06T17:04:46.773Z,3.13
2023-05-06T17:07:14.536Z,1.60
2023-05-06T17:09:49.472Z,1.88
2023-05-06T17:12:17.085Z,1.65
2023-05-06T17:14:44.803Z,1.85
2023-05-06T17:17:12.356Z,2.95
2023-05-06T17:19:41.100Z,4.70
2023-05-06T17:22:08.684Z,3.38
2023-05-06T17:24:36.452Z,5.80
2023-05-06T17:27:04.735Z,2.17
2023-05-06T17:29:32.373Z,2.17
2023-05-06T17:32:00.500Z,2.10
2023-05-06T17:34:28.176Z,1.48
2023-05-06T17:36:55.988Z,2.35
2023-05-06T17:39:23.615Z,3.20
2023-05-06T17:41:51.271Z,2.47
2023-05-06T17:44:18.921Z,2.40
2023-05-06T17:46:46.525Z,2.60
2023-05-06T17:49:14.222Z,4.82
2023-05-06T17:51:45.082Z,4.85
2023-05-06T17:54:13.246Z,2.05
2023-05-06T17:56:40.937Z,2.75
2023-05-06T17:59:08.586Z,2.67
2023-05-06T18:01:36.425Z,2.10
2023-05-06T18:04:04.145Z,1.95
2023-05-06T18:06:31.799Z,3.63
2023-05-06T18:08:59.318Z,3.95
2023-05-06T18:11:26.899Z,3.03
2023-05-06T18:13:54.660Z,3.72
2023-05-06T18:16:22.338Z,3.78
2023-05-06T18:18:50.005Z,2.28
2023-05-06T18:21:17.490Z,2.17
2023-05-06T18:23:45.190Z,3.85
2023-05-06T18:26:12.686Z,2.33
2023-05-06T18:28:43.486Z,3.10
2023-05-06T18:31:11.271Z,2.72
2023-05-06T18:33:38.935Z,4.10
2023-05-06T18:36:06.718Z,2.63
2023-05-06T18:38:34.201Z,3.17
2023-05-06T18:41:02.876Z,3.67
2023-05-06T18:43:31.333Z,2.05
2023-05-06T18:45:58.937Z,2.25
2023-05-06T18:48:27.498Z,5.43
2023-05-06T18:50:55.153Z,4.63
2023-05-06T18:53:22.889Z,3.95
2023-05-06T18:55:51.059Z,3.13
2023-05-06T18:58:19.476Z,3.45
2023-05-06T19:00:47.102Z,3.05
2023-05-06T19:03:14.908Z,2.30
2023-05-06T19:05:42.443Z,3.67
2023-05-06T19:08:10.389Z,4.03
2023-05-06T19:10:38.131Z,6.55
2023-05-06T19:13:07.429Z,5.90
2023-05-06T19:15:38.216Z,4.32
2023-05-06T19:20:33.378Z,5.00
2023-05-06T19:23:03.250Z,6.43
2023-05-06T19:25:35.958Z,6.13
2023-05-06T19:28:04.053Z,4.25
2023-05-06T19:30:32.352Z,5.03
2023-05-06T19:33:00.974Z,2.72
2023-05-06T19:35:28.526Z,4.85
2023-05-06T19:37:56.211Z,5.10
2023-05-06T19:40:23.756Z,8.75
2023-05-06T19:42:51.242Z,4.85
2023-05-06T19:45:19.525Z,5.30
2023-05-06T19:47:47.333Z,4.30
2023-05-06T19:50:15.060Z,3.97
2023-05-06T19:52:42.623Z,6.13
2023-05-06T19:55:11.215Z,4.75
2023-05-06T19:57:38.993Z,5.53
2023-05-06T20:00:10.157Z,4.72
2023-05-06T20:02:38.656Z,8.25
2023-05-06T20:05:06.824Z,9.75
2023-05-06T20:07:34.392Z,5.22
2023-05-06T20:10:01.876Z,7.28
2023-05-06T20:12:30.333Z,6.45
2023-05-06T20:14:57.929Z,5.40
2023-05-06T20:17:25.806Z,4.43
2023-05-06T20:19:57.161Z,5.03
2023-05-06T20:22:25.529Z,10.40
2023-05-06T20:24:53.796Z,5.60
2023-05-06T20:27:21.518Z,8.43
2023-05-06T20:29:51.404Z,5.38
2023-05-06T20:32:19.056Z,3.90
2023-05-06T20:34:46.531Z,5.35
2023-05-06T20:37:14.171Z,4.10
2023-05-06T20:39:41.831Z,5.60
2023-05-06T20:42:09.989Z,4.07
2023-05-06T20:44:39.031Z,4.30
2023-05-06T20:47:10.495Z,5.10
2023-05-06T20:49:38.015Z,4.05
2023-05-06T20:52:07.499Z,3.08
2023-05-06T20:54:35.294Z,3.60
2023-05-06T20:57:02.849Z,5.07
2023-05-06T20:59:30.450Z,3.85
2023-05-06T21:01:58.155Z,6.90
2023-05-06T21:04:25.954Z,3.83
2023-05-06T21:06:53.442Z,7.70
2023-05-06T21:09:21.066Z,5.78
2023-05-06T21:11:48.628Z,4.30
2023-05-06T21:14:16.093Z,5.60
2023-05-06T21:16:43.758Z,3.97
2023-05-06T21:19:11.344Z,4.15
2023-05-06T21:21:38.914Z,4.88
2023-05-06T21:24:06.542Z,3.45
2023-05-06T21:26:34.115Z,4.57
2023-05-06T21:29:01.661Z,3.08
2023-05-06T21:31:30.105Z,3.58
2023-05-06T21:33:58.834Z,3.83
2023-05-06T21:36:27.011Z,4.60
2023-05-06T21:39:02.045Z,5.75
2023-05-06T21:41:29.643Z,4.35
2023-05-06T21:43:57.171Z,6.30
2023-05-06T21:46:24.797Z,5.50
2023-05-06T21:48:52.291Z,3.75
2023-05-06T21:51:19.878Z,6.45
2023-05-06T21:53:50.860Z,8.27
2023-05-06T21:56:18.616Z,5.28
2023-05-06T21:58:46.151Z,6.45
2023-05-06T22:01:13.780Z,3.67
2023-05-06T22:03:41.550Z,4.10
2023-05-06T22:06:09.162Z,6.75
2023-05-06T22:08:36.766Z,5.65
2023-05-06T22:11:04.255Z,5.13
2023-05-06T22:13:31.759Z,3.58
2023-05-06T22:15:59.359Z,3.00
2023-05-06T22:18:27.897Z,6.00
2023-05-06T22:20:56.678Z,4.05
2023-05-06T22:23:24.387Z,6.65
2023-05-06T22:25:52.040Z,4.93
2023-05-06T22:28:19.975Z,2.63
2023-05-06T22:30:47.489Z,3.45
2023-05-06T22:33:15.026Z,3.63
2023-05-06T22:35:42.668Z,5.68
2023-05-06T22:38:10.304Z,3.45
2023-05-06T22:40:37.787Z,3.10
2023-05-06T22:43:05.277Z,3.17
2023-05-06T22:45:32.778Z,4.55
2023-05-06T22:48:00.452Z,4.60
2023-05-06T22:50:28.080Z,3.05
2023-05-06T22:52:55.626Z,5.63
2023-05-06T22:55:23.103Z,4.50
2023-05-06T22:57:52.829Z,4.07
2023-05-06T23:00:20.494Z,6.20
2023-05-06T23:02:48.047Z,3.78
2023-05-06T23:05:15.746Z,4.78
2023-05-06T23:07:43.341Z,4.65
2023-05-06T23:10:11.071Z,5.75
2023-05-06T23:12:38.589Z,5.28
2023-05-06T23:15:06.602Z,5.00
2023-05-06T23:17:34.118Z,5.68
2023-05-06T23:20:01.666Z,7.63
2023-05-06T23:22:29.142Z,4.22
2023-05-06T23:24:56.615Z,5.93
2023-05-06T23:27:24.103Z,3.00
2023-05-06T23:29:51.726Z,3.50
2023-05-06T23:32:19.218Z,3.58
2023-05-06T23:34:46.704Z,4.32
2023-05-06T23:37:14.225Z,5.22
2023-05-06T23:39:41.703Z,4.32
2023-05-06T23:42:09.207Z,2.42
2023-05-06T23:44:37.748Z,3.90
2023-05-06T23:47:05.374Z,3.50
2023-05-06T23:49:32.861Z,4.28
2023-05-06T23:52:00.349Z,3.95
2023-05-06T23:54:27.851Z,4.07
2023-05-06T23:56:55.771Z,4.80
2023-05-06T23:59:23.327Z,3.45
